sensor_id;sensor_type;location;lat;lon;timestamp;pressure;altitude;pressure_sealevel;temperature;humidity
57048;BME280;42934;54.294;18.598;2023-12-04T00:01:06;101036.75;;;-0.21;78.63
57048;BME280;42934;54.294;18.598;2023-12-04T00:03:44;101044.44;;;-0.24;78.78
57048;BME280;42934;54.294;18.598;2023-12-04T00:06:15;101045.34;;;-0.24;78.32
57048;BME280;42934;54.294;18.598;2023-12-04T00:08:44;101039.28;;;-0.24;78.50
57048;BME280;42934;54.294;18.598;2023-12-04T00:11:13;101042.78;;;-0.24;78.52
57048;BME280;42934;54.294;18.598;2023-12-04T00:13:43;101043.56;;;-0.26;78.36
57048;BME280;42934;54.294;18.598;2023-12-04T00:16:12;101043.59;;;-0.25;78.55
57048;BME280;42934;54.294;18.598;2023-12-04T00:18:41;101051.97;;;-0.36;78.14
57048;BME280;42934;54.294;18.598;2023-12-04T00:21:12;101054.56;;;-0.36;78.68
57048;BME280;42934;54.294;18.598;2023-12-04T00:23:43;101046.88;;;-0.33;78.48
57048;BME280;42934;54.294;18.598;2023-12-04T00:26:12;101049.50;;;-0.32;78.65
57048;BME280;42934;54.294;18.598;2023-12-04T00:28:41;101048.63;;;-0.32;78.42
57048;BME280;42934;54.294;18.598;2023-12-04T00:31:11;101049.44;;;-0.35;78.02
57048;BME280;42934;54.294;18.598;2023-12-04T00:33:40;101041.75;;;-0.32;78.72
57048;BME280;42934;54.294;18.598;2023-12-04T00:36:10;101040.94;;;-0.29;78.56
57048;BME280;42934;54.294;18.598;2023-12-04T00:38:39;101039.28;;;-0.26;77.79
57048;BME280;42934;54.294;18.598;2023-12-04T00:41:10;101049.66;;;-0.21;78.12
57048;BME280;42934;54.294;18.598;2023-12-04T00:43:39;101049.63;;;-0.24;77.95
57048;BME280;42934;54.294;18.598;2023-12-04T00:46:09;101048.78;;;-0.23;77.61
57048;BME280;42934;54.294;18.598;2023-12-04T00:48:38;101058.25;;;-0.24;78.40
57048;BME280;42934;54.294;18.598;2023-12-04T00:54:14;101058.16;;;-0.28;77.41
57048;BME280;42934;54.294;18.598;2023-12-04T00:56:45;101065.03;;;-0.29;78.30
57048;BME280;42934;54.294;18.598;2023-12-04T00:59:14;101067.56;;;-0.32;77.67
57048;BME280;42934;54.294;18.598;2023-12-04T01:01:43;101073.41;;;-0.40;78.17
57048;BME280;42934;54.294;18.598;2023-12-04T01:04:12;101076.97;;;-0.34;77.93
57048;BME280;42934;54.294;18.598;2023-12-04T01:06:42;101075.19;;;-0.36;78.43
57048;BME280;42934;54.294;18.598;2023-12-04T01:09:11;101073.53;;;-0.33;77.84
57048;BME280;42934;54.294;18.598;2023-12-04T01:11:40;101070.84;;;-0.40;77.87
57048;BME280;42934;54.294;18.598;2023-12-04T01:14:10;101073.47;;;-0.36;77.90
57048;BME280;42934;54.294;18.598;2023-12-04T01:16:40;101079.53;;;-0.35;77.92
57048;BME280;42934;54.294;18.598;2023-12-04T01:19:09;101083.81;;;-0.36;77.88
57048;BME280;42934;54.294;18.598;2023-12-04T01:21:39;101089.00;;;-0.34;77.92
57048;BME280;42934;54.294;18.598;2023-12-04T01:24:08;101089.72;;;-0.41;78.45
57048;BME280;42934;54.294;18.598;2023-12-04T01:26:37;101088.91;;;-0.40;78.28
57048;BME280;42934;54.294;18.598;2023-12-04T01:29:06;101089.75;;;-0.40;78.20
57048;BME280;42934;54.294;18.598;2023-12-04T01:31:37;101092.38;;;-0.37;78.48
57048;BME280;42934;54.294;18.598;2023-12-04T01:34:06;101090.69;;;-0.36;78.05
57048;BME280;42934;54.294;18.598;2023-12-04T01:36:39;101095.03;;;-0.34;78.43
57048;BME280;42934;54.294;18.598;2023-12-04T01:39:08;101083.75;;;-0.39;78.18
57048;BME280;42934;54.294;18.598;2023-12-04T01:41:37;101092.28;;;-0.43;78.44
57048;BME280;42934;54.294;18.598;2023-12-04T01:44:07;101088.09;;;-0.36;77.79
57048;BME280;42934;54.294;18.598;2023-12-04T01:46:38;101095.00;;;-0.35;78.25
57048;BME280;42934;54.294;18.598;2023-12-04T01:49:07;101091.59;;;-0.34;77.70
57048;BME280;42934;54.294;18.598;2023-12-04T01:51:37;101093.25;;;-0.38;77.62
57048;BME280;42934;54.294;18.598;2023-12-04T01:54:06;101091.34;;;-0.47;77.90
57048;BME280;42934;54.294;18.598;2023-12-04T01:56:36;101086.19;;;-0.47;78.67
57048;BME280;42934;54.294;18.598;2023-12-04T01:59:05;101087.06;;;-0.44;77.96
57048;BME280;42934;54.294;18.598;2023-12-04T02:01:34;101083.69;;;-0.43;78.37
57048;BME280;42934;54.294;18.598;2023-12-04T02:04:06;101077.59;;;-0.46;77.97
57048;BME280;42934;54.294;18.598;2023-12-04T02:06:36;101077.75;;;-0.38;78.19
57048;BME280;42934;54.294;18.598;2023-12-04T02:09:05;101083.00;;;-0.33;77.67
57048;BME280;42934;54.294;18.598;2023-12-04T02:11:39;101080.50;;;-0.29;78.09
57048;BME280;42934;54.294;18.598;2023-12-04T02:14:08;101095.13;;;-0.28;77.98
57048;BME280;42934;54.294;18.598;2023-12-04T02:16:39;101093.47;;;-0.24;78.22
57048;BME280;42934;54.294;18.598;2023-12-04T02:19:11;101086.53;;;-0.28;77.19
57048;BME280;42934;54.294;18.598;2023-12-04T02:21:41;101093.47;;;-0.26;77.63
57048;BME280;42934;54.294;18.598;2023-12-04T02:24:11;101090.88;;;-0.26;77.58
57048;BME280;42934;54.294;18.598;2023-12-04T02:26:43;101088.38;;;-0.22;77.78
57048;BME280;42934;54.294;18.598;2023-12-04T02:29:15;101093.63;;;-0.16;77.24
57048;BME280;42934;54.294;18.598;2023-12-04T02:31:50;101086.66;;;-0.22;76.98
57048;BME280;42934;54.294;18.598;2023-12-04T02:34:20;101087.66;;;-0.14;76.95
57048;BME280;42934;54.294;18.598;2023-12-04T02:36:50;101092.88;;;-0.11;77.36
57048;BME280;42934;54.294;18.598;2023-12-04T02:39:20;101086.91;;;-0.08;77.29
57048;BME280;42934;54.294;18.598;2023-12-04T02:41:50;101090.34;;;-0.06;77.25
57048;BME280;42934;54.294;18.598;2023-12-04T02:44:19;101093.88;;;-0.03;77.10
57048;BME280;42934;54.294;18.598;2023-12-04T02:46:49;101098.16;;;-0.05;76.81
57048;BME280;42934;54.294;18.598;2023-12-04T02:49:18;101101.59;;;-0.04;76.43
57048;BME280;42934;54.294;18.598;2023-12-04T02:51:47;101102.50;;;-0.02;76.45
57048;BME280;42934;54.294;18.598;2023-12-04T02:54:16;101090.50;;;0.00;76.12
57048;BME280;42934;54.294;18.598;2023-12-04T02:56:47;101096.53;;;0.01;76.60
57048;BME280;42934;54.294;18.598;2023-12-04T02:59:16;101090.50;;;0.00;76.36
57048;BME280;42934;54.294;18.598;2023-12-04T03:01:46;101094.81;;;0.01;76.59
57048;BME280;42934;54.294;18.598;2023-12-04T03:04:15;101098.25;;;0.02;75.93
57048;BME280;42934;54.294;18.598;2023-12-04T03:06:44;101105.13;;;0.01;75.64
57048;BME280;42934;54.294;18.598;2023-12-04T03:09:13;101108.53;;;-0.02;76.03
57048;BME280;42934;54.294;18.598;2023-12-04T03:11:43;101107.66;;;-0.01;76.38
57048;BME280;42934;54.294;18.598;2023-12-04T03:14:13;101108.56;;;0.02;76.29
57048;BME280;42934;54.294;18.598;2023-12-04T03:16:43;101106.00;;;0.02;75.96
57048;BME280;42934;54.294;18.598;2023-12-04T03:19:12;101106.84;;;0.01;76.46
57048;BME280;42934;54.294;18.598;2023-12-04T03:21:41;101104.22;;;-0.01;76.19
57048;BME280;42934;54.294;18.598;2023-12-04T03:24:11;101093.88;;;-0.03;76.27
57048;BME280;42934;54.294;18.598;2023-12-04T03:26:40;101105.94;;;-0.02;76.50
57048;BME280;42934;54.294;18.598;2023-12-04T03:29:09;101103.25;;;-0.06;75.85
57048;BME280;42934;54.294;18.598;2023-12-04T03:31:40;101103.25;;;-0.06;75.54
57048;BME280;42934;54.294;18.598;2023-12-04T03:34:09;101109.28;;;-0.07;76.13
57048;BME280;42934;54.294;18.598;2023-12-04T03:36:39;101104.91;;;-0.11;75.93
57048;BME280;42934;54.294;18.598;2023-12-04T03:39:08;101110.03;;;-0.14;75.50
57048;BME280;42934;54.294;18.598;2023-12-04T03:41:37;101109.13;;;-0.16;75.80
57048;BME280;42934;54.294;18.598;2023-12-04T03:44:06;101109.06;;;-0.18;75.06
57048;BME280;42934;54.294;18.598;2023-12-04T03:46:36;101112.50;;;-0.20;75.67
57048;BME280;42934;54.294;18.598;2023-12-04T03:49:06;101117.66;;;-0.20;75.49
57048;BME280;42934;54.294;18.598;2023-12-04T03:51:36;101120.19;;;-0.22;75.00
57048;BME280;42934;54.294;18.598;2023-12-04T03:54:05;101124.50;;;-0.22;74.77
57048;BME280;42934;54.294;18.598;2023-12-04T03:56:34;101122.63;;;-0.30;74.76
57048;BME280;42934;54.294;18.598;2023-12-04T03:59:03;101117.41;;;-0.33;74.42
57048;BME280;42934;54.294;18.598;2023-12-04T04:01:33;101119.97;;;-0.34;73.80
57048;BME280;42934;54.294;18.598;2023-12-04T04:04:02;101114.75;;;-0.36;74.16
57048;BME280;42934;54.294;18.598;2023-12-04T04:06:33;101119.97;;;-0.34;73.99
57048;BME280;42934;54.294;18.598;2023-12-04T04:09:02;101112.91;;;-0.43;73.86
57048;BME280;42934;54.294;18.598;2023-12-04T04:11:31;101119.69;;;-0.48;73.77
57048;BME280;42934;54.294;18.598;2023-12-04T04:14:00;101120.38;;;-0.57;73.93
57048;BME280;42934;54.294;18.598;2023-12-04T04:16:30;101121.09;;;-0.64;73.45
57048;BME280;42934;54.294;18.598;2023-12-04T04:18:59;101124.50;;;-0.65;73.39
57048;BME280;42934;54.294;18.598;2023-12-04T04:21:29;101121.84;;;-0.68;73.65
57048;BME280;42934;54.294;18.598;2023-12-04T04:23:59;101129.53;;;-0.71;73.47
57048;BME280;42934;54.294;18.598;2023-12-04T04:26:29;101132.09;;;-0.73;74.08
57048;BME280;42934;54.294;18.598;2023-12-04T04:28:58;101134.63;;;-0.74;73.75
57048;BME280;42934;54.294;18.598;2023-12-04T04:31:28;101118.06;;;-0.85;73.46
57048;BME280;42934;54.294;18.598;2023-12-04T04:33:57;101130.25;;;-0.78;73.83
57048;BME280;42934;54.294;18.598;2023-12-04T04:36:26;101130.25;;;-0.78;73.91
57048;BME280;42934;54.294;18.598;2023-12-04T04:38:55;101126.88;;;-0.76;73.65
57048;BME280;42934;54.294;18.598;2023-12-04T04:41:26;101134.63;;;-0.74;73.62
57048;BME280;42934;54.294;18.598;2023-12-04T04:43:55;101136.41;;;-0.72;73.95
57048;BME280;42934;54.294;18.598;2023-12-04T04:46:25;101138.13;;;-0.72;73.62
57048;BME280;42934;54.294;18.598;2023-12-04T04:48:55;101133.69;;;-0.79;73.59
57048;BME280;42934;54.294;18.598;2023-12-04T04:51:25;101140.44;;;-0.83;73.87
57048;BME280;42934;54.294;18.598;2023-12-04T04:53:54;101134.44;;;-0.83;73.80
57048;BME280;42934;54.294;18.598;2023-12-04T04:56:23;101137.00;;;-0.85;73.76
57048;BME280;42934;54.294;18.598;2023-12-04T04:58:54;101138.69;;;-0.85;73.76
57048;BME280;42934;54.294;18.598;2023-12-04T05:01:23;101133.44;;;-0.90;73.45
57048;BME280;42934;54.294;18.598;2023-12-04T05:03:52;101142.81;;;-0.94;73.96
57048;BME280;42934;54.294;18.598;2023-12-04T05:06:22;101138.47;;;-0.95;73.94
57048;BME280;42934;54.294;18.598;2023-12-04T05:08:51;101128.16;;;-0.96;73.79
57048;BME280;42934;54.294;18.598;2023-12-04T05:11:21;101132.50;;;-0.94;73.45
57048;BME280;42934;54.294;18.598;2023-12-04T05:13:51;101124.78;;;-0.94;73.75
57048;BME280;42934;54.294;18.598;2023-12-04T05:16:22;101130.66;;;-0.99;73.12
57048;BME280;42934;54.294;18.598;2023-12-04T05:18:51;101134.88;;;-1.03;73.82
57048;BME280;42934;54.294;18.598;2023-12-04T05:21:21;101134.03;;;-1.02;73.75
57048;BME280;42934;54.294;18.598;2023-12-04T05:23:50;101138.34;;;-1.01;73.83
57048;BME280;42934;54.294;18.598;2023-12-04T05:26:19;101135.75;;;-1.01;73.97
57048;BME280;42934;54.294;18.598;2023-12-04T05:28:48;101139.13;;;-1.03;74.14
57048;BME280;42934;54.294;18.598;2023-12-04T05:31:18;101131.47;;;-1.02;73.71
57048;BME280;42934;54.294;18.598;2023-12-04T05:33:48;101131.47;;;-1.02;74.07
57048;BME280;42934;54.294;18.598;2023-12-04T05:36:18;101127.88;;;-1.08;73.83
57048;BME280;42934;54.294;18.598;2023-12-04T05:38:47;101125.13;;;-1.16;73.41
57048;BME280;42934;54.294;18.598;2023-12-04T05:41:16;101131.97;;;-1.17;73.32
57048;BME280;42934;54.294;18.598;2023-12-04T05:43:46;101130.88;;;-1.28;73.63
57048;BME280;42934;54.294;18.598;2023-12-04T05:46:15;101134.03;;;-1.40;73.45
57048;BME280;42934;54.294;18.598;2023-12-04T05:48:44;101138.31;;;-1.40;73.67
57048;BME280;42934;54.294;18.598;2023-12-04T05:51:15;101135.53;;;-1.48;73.51
57048;BME280;42934;54.294;18.598;2023-12-04T05:53:44;101144.03;;;-1.52;73.97
57048;BME280;42934;54.294;18.598;2023-12-04T05:56:14;101132.03;;;-1.51;73.74
57048;BME280;42934;54.294;18.598;2023-12-04T05:58:43;101135.44;;;-1.52;73.53
57048;BME280;42934;54.294;18.598;2023-12-04T06:01:12;101133.59;;;-1.56;73.84
57048;BME280;42934;54.294;18.598;2023-12-04T06:03:43;101135.03;;;-1.68;73.77
57048;BME280;42934;54.294;18.598;2023-12-04T06:06:13;101124.59;;;-1.74;73.71
57048;BME280;42934;54.294;18.598;2023-12-04T06:08:43;101128.84;;;-1.76;74.07
57048;BME280;42934;54.294;18.598;2023-12-04T06:11:13;101125.38;;;-1.78;74.32
57048;BME280;42934;54.294;18.598;2023-12-04T06:13:42;101109.84;;;-1.81;74.17
57048;BME280;42934;54.294;18.598;2023-12-04T06:16:11;101122.88;;;-1.75;74.21
57048;BME280;42934;54.294;18.598;2023-12-04T06:18:40;101115.19;;;-1.73;74.44
57048;BME280;42934;54.294;18.598;2023-12-04T06:21:10;101132.47;;;-1.68;74.35
57048;BME280;42934;54.294;18.598;2023-12-04T06:23:39;101133.22;;;-1.72;73.95
57048;BME280;42934;54.294;18.598;2023-12-04T06:26:11;101135.78;;;-1.73;74.20
57048;BME280;42934;54.294;18.598;2023-12-04T06:28:41;101139.94;;;-1.78;74.06
57048;BME280;42934;54.294;18.598;2023-12-04T06:31:11;101132.31;;;-1.74;74.13
57048;BME280;42934;54.294;18.598;2023-12-04T06:33:41;101139.06;;;-1.79;73.87
57048;BME280;42934;54.294;18.598;2023-12-04T06:36:10;101135.59;;;-1.79;73.79
57048;BME280;42934;54.294;18.598;2023-12-04T06:38:41;101130.84;;;-1.99;74.26
57048;BME280;42934;54.294;18.598;2023-12-04T06:41:13;101126.41;;;-2.03;74.63
57048;BME280;42934;54.294;18.598;2023-12-04T06:43:43;101122.44;;;-1.92;74.54
57048;BME280;42934;54.294;18.598;2023-12-04T06:46:12;101121.69;;;-1.88;74.45
57048;BME280;42934;54.294;18.598;2023-12-04T06:48:43;101133.94;;;-1.77;74.49
57048;BME280;42934;54.294;18.598;2023-12-04T06:51:13;101140.97;;;-1.72;74.51
57048;BME280;42934;54.294;18.598;2023-12-04T06:53:42;101135.94;;;-1.67;74.45
57048;BME280;42934;54.294;18.598;2023-12-04T06:56:13;101138.50;;;-1.67;74.02
57048;BME280;42934;54.294;18.598;2023-12-04T06:58:45;101136.66;;;-1.73;74.01
57048;BME280;42934;54.294;18.598;2023-12-04T07:01:15;101131.44;;;-1.74;73.72
57048;BME280;42934;54.294;18.598;2023-12-04T07:03:44;101122.84;;;-1.76;74.31
57048;BME280;42934;54.294;18.598;2023-12-04T07:06:14;101135.72;;;-1.75;74.19
57048;BME280;42934;54.294;18.598;2023-12-04T07:08:43;101134.09;;;-1.73;74.34
57048;BME280;42934;54.294;18.598;2023-12-04T07:11:14;101134.19;;;-1.68;74.12
57048;BME280;42934;54.294;18.598;2023-12-04T07:13:43;101140.03;;;-1.75;73.93
57048;BME280;42934;54.294;18.598;2023-12-04T07:16:13;101145.16;;;-1.75;73.83
57048;BME280;42934;54.294;18.598;2023-12-04T07:18:42;101142.50;;;-1.78;74.07
57048;BME280;42934;54.294;18.598;2023-12-04T07:21:11;101145.00;;;-1.81;74.41
57048;BME280;42934;54.294;18.598;2023-12-04T07:23:41;101143.31;;;-1.81;74.44
57048;BME280;42934;54.294;18.598;2023-12-04T07:26:10;101147.66;;;-1.78;74.25
57048;BME280;42934;54.294;18.598;2023-12-04T07:28:41;101149.41;;;-1.77;74.24
57048;BME280;42934;54.294;18.598;2023-12-04T07:31:10;101154.38;;;-1.85;74.42
57048;BME280;42934;54.294;18.598;2023-12-04T07:33:39;101156.03;;;-1.87;74.73
57048;BME280;42934;54.294;18.598;2023-12-04T07:36:09;101154.00;;;-1.99;75.38
57048;BME280;42934;54.294;18.598;2023-12-04T07:38:38;101150.63;;;-1.96;76.08
57048;BME280;42934;54.294;18.598;2023-12-04T07:41:08;101163.50;;;-1.96;76.27
57048;BME280;42934;54.294;18.598;2023-12-04T07:43:37;101144.69;;;-1.94;76.21
57048;BME280;42934;54.294;18.598;2023-12-04T07:46:10;101145.44;;;-1.98;76.90
57048;BME280;42934;54.294;18.598;2023-12-04T07:48:39;101151.03;;;-2.14;78.68
57048;BME280;42934;54.294;18.598;2023-12-04T07:51:09;101146.81;;;-2.11;79.44
57048;BME280;42934;54.294;18.598;2023-12-04T07:53:38;101146.19;;;-2.02;78.55
57048;BME280;42934;54.294;18.598;2023-12-04T07:56:08;101145.34;;;-2.01;78.70
57048;BME280;42934;54.294;18.598;2023-12-04T07:58:37;101155.94;;;-1.90;78.40
57048;BME280;42934;54.294;18.598;2023-12-04T08:01:07;101155.88;;;-1.92;79.17
57048;BME280;42934;54.294;18.598;2023-12-04T08:03:38;101145.97;;;-2.10;80.74
57048;BME280;42934;54.294;18.598;2023-12-04T08:06:08;101149.72;;;-1.98;81.19
57048;BME280;42934;54.294;18.598;2023-12-04T08:08:37;101152.44;;;-1.94;81.36
57048;BME280;42934;54.294;18.598;2023-12-04T08:11:09;101148.94;;;-1.96;82.03
57048;BME280;42934;54.294;18.598;2023-12-04T08:13:38;101152.53;;;-1.89;81.69
57048;BME280;42934;54.294;18.598;2023-12-04T08:16:12;101153.91;;;-2.02;82.95
57048;BME280;42934;54.294;18.598;2023-12-04T08:18:43;101145.25;;;-2.06;83.99
57048;BME280;42934;54.294;18.598;2023-12-04T08:21:12;101153.00;;;-2.04;84.65
57048;BME280;42934;54.294;18.598;2023-12-04T08:23:42;101150.66;;;-1.95;84.48
57048;BME280;42934;54.294;18.598;2023-12-04T08:26:11;101143.25;;;-1.83;84.10
57048;BME280;42934;54.294;18.598;2023-12-04T08:28:40;101148.28;;;-1.87;84.77
57048;BME280;42934;54.294;18.598;2023-12-04T08:31:10;101151.06;;;-1.79;84.85
57048;BME280;42934;54.294;18.598;2023-12-04T08:33:39;101144.56;;;-1.65;84.19
57048;BME280;42934;54.294;18.598;2023-12-04T08:36:11;101151.47;;;-1.63;84.00
57048;BME280;42934;54.294;18.598;2023-12-04T08:38:40;101151.72;;;-1.53;83.83
57048;BME280;42934;54.294;18.598;2023-12-04T08:41:10;101155.28;;;-1.48;84.04
57048;BME280;42934;54.294;18.598;2023-12-04T08:43:39;101154.50;;;-1.44;83.60
57048;BME280;42934;54.294;18.598;2023-12-04T08:46:11;101151.97;;;-1.43;83.64
57048;BME280;42934;54.294;18.598;2023-12-04T08:48:40;101142.75;;;-1.34;83.19
57048;BME280;42934;54.294;18.598;2023-12-04T08:51:16;101142.16;;;-1.23;82.88
57048;BME280;42934;54.294;18.598;2023-12-04T08:53:45;101155.91;;;-1.22;83.01
57048;BME280;42934;54.294;18.598;2023-12-04T08:56:14;101156.63;;;-1.28;83.42
57048;BME280;42934;54.294;18.598;2023-12-04T08:58:52;101161.13;;;-1.19;83.29
57048;BME280;42934;54.294;18.598;2023-12-04T09:01:21;101170.72;;;-1.13;83.14
57048;BME280;42934;54.294;18.598;2023-12-04T09:03:51;101172.50;;;-1.09;82.47
57048;BME280;42934;54.294;18.598;2023-12-04T09:06:23;101156.09;;;-1.13;82.43
57048;BME280;42934;54.294;18.598;2023-12-04T09:09:12;101169.28;;;-1.01;83.17
57048;BME280;42934;54.294;18.598;2023-12-04T09:11:44;101170.31;;;-0.94;82.49
57048;BME280;42934;54.294;18.598;2023-12-04T09:14:13;101169.41;;;-0.95;83.30
57048;BME280;42934;54.294;18.598;2023-12-04T09:16:42;101168.59;;;-0.94;83.46
57048;BME280;42934;54.294;18.598;2023-12-04T09:19:11;101168.59;;;-0.94;83.47
57048;BME280;42934;54.294;18.598;2023-12-04T09:21:42;101171.38;;;-0.83;82.59
57048;BME280;42934;54.294;18.598;2023-12-04T09:24:12;101162.91;;;-0.79;82.98
57048;BME280;42934;54.294;18.598;2023-12-04T09:26:42;101164.81;;;-0.69;81.57
57048;BME280;42934;54.294;18.598;2023-12-04T09:29:13;101172.69;;;-0.64;81.78
57048;BME280;42934;54.294;18.598;2023-12-04T09:31:43;101169.28;;;-0.61;81.92
57048;BME280;42934;54.294;18.598;2023-12-04T09:34:12;101165.00;;;-0.59;81.40
57048;BME280;42934;54.294;18.598;2023-12-04T09:36:43;101167.53;;;-0.64;82.24
57048;BME280;42934;54.294;18.598;2023-12-04T09:39:12;101165.00;;;-0.59;82.45
57048;BME280;42934;54.294;18.598;2023-12-04T09:41:42;101171.06;;;-0.59;82.65
57048;BME280;42934;54.294;18.598;2023-12-04T09:44:12;101176.34;;;-0.53;82.39
57048;BME280;42934;54.294;18.598;2023-12-04T09:46:41;101174.59;;;-0.54;81.59
57048;BME280;42934;54.294;18.598;2023-12-04T09:49:11;101171.03;;;-0.60;82.44
57048;BME280;42934;54.294;18.598;2023-12-04T09:51:41;101168.56;;;-0.54;82.24
57048;BME280;42934;54.294;18.598;2023-12-04T09:54:11;101165.22;;;-0.50;81.50
57048;BME280;42934;54.294;18.598;2023-12-04T09:56:41;101166.91;;;-0.52;81.84
57048;BME280;42934;54.294;18.598;2023-12-04T09:59:10;101170.47;;;-0.46;81.72
57048;BME280;42934;54.294;18.598;2023-12-04T10:01:42;101164.28;;;-0.54;82.37
57048;BME280;42934;54.294;18.598;2023-12-04T10:04:12;101172.25;;;-0.43;81.85
57048;BME280;42934;54.294;18.598;2023-12-04T10:06:41;101152.47;;;-0.42;82.30
57048;BME280;42934;54.294;18.598;2023-12-04T10:09:13;101153.56;;;-0.30;82.32
57048;BME280;42934;54.294;18.598;2023-12-04T10:11:43;101150.31;;;-0.21;82.23
57048;BME280;42934;54.294;18.598;2023-12-04T10:14:14;101153.00;;;-0.16;81.61
57048;BME280;42934;54.294;18.598;2023-12-04T10:16:44;101148.69;;;-0.17;82.15
57048;BME280;42934;54.294;18.598;2023-12-04T10:19:17;101146.16;;;-0.14;81.86
57048;BME280;42934;54.294;18.598;2023-12-04T10:21:47;101152.38;;;-0.03;82.08
57048;BME280;42934;54.294;18.598;2023-12-04T10:24:31;101144.81;;;0.06;81.53
57048;BME280;42934;54.294;18.598;2023-12-04T10:27:02;101143.97;;;0.09;81.98
57048;BME280;42934;54.294;18.598;2023-12-04T10:29:40;101148.25;;;0.07;81.35
57048;BME280;42934;54.294;18.598;2023-12-04T10:32:11;101150.16;;;0.15;81.55
57048;BME280;42934;54.294;18.598;2023-12-04T10:34:41;101151.97;;;0.22;80.96
57048;BME280;42934;54.294;18.598;2023-12-04T10:37:10;101151.91;;;0.18;81.13
57048;BME280;42934;54.294;18.598;2023-12-04T10:39:47;101151.06;;;0.19;81.77
57048;BME280;42934;54.294;18.598;2023-12-04T10:42:23;101158.00;;;0.23;81.75
57048;BME280;42934;54.294;18.598;2023-12-04T10:44:54;101150.34;;;0.28;81.57
57048;BME280;42934;54.294;18.598;2023-12-04T10:47:24;101148.84;;;0.40;81.20
57048;BME280;42934;54.294;18.598;2023-12-04T10:49:53;101144.56;;;0.42;80.95
57048;BME280;42934;54.294;18.598;2023-12-04T10:52:24;101154.28;;;0.57;81.19
57048;BME280;42934;54.294;18.598;2023-12-04T10:54:56;101150.84;;;0.58;80.35
57048;BME280;42934;54.294;18.598;2023-12-04T10:57:27;101153.56;;;0.66;80.31
57048;BME280;42934;54.294;18.598;2023-12-04T10:59:57;101154.25;;;0.56;79.66
57048;BME280;42934;54.294;18.598;2023-12-04T11:02:28;101151.16;;;0.77;80.39
57048;BME280;42934;54.294;18.598;2023-12-04T11:04:58;101150.34;;;0.82;79.89
57048;BME280;42934;54.294;18.598;2023-12-04T11:07:30;101150.47;;;0.88;80.09
57048;BME280;42934;54.294;18.598;2023-12-04T11:10:23;101147.91;;;0.90;79.80
57048;BME280;42934;54.294;18.598;2023-12-04T11:12:55;101152.16;;;0.86;79.31
57048;BME280;42934;54.294;18.598;2023-12-04T11:15:26;101145.41;;;0.96;78.74
57048;BME280;42934;54.294;18.598;2023-12-04T11:17:59;101141.88;;;0.91;78.75
57048;BME280;42934;54.294;18.598;2023-12-04T11:20:29;101148.94;;;1.01;78.97
57048;BME280;42934;54.294;18.598;2023-12-04T11:23:00;101147.94;;;0.93;77.99
57048;BME280;42934;54.294;18.598;2023-12-04T11:25:32;101142.84;;;0.98;78.32
57048;BME280;42934;54.294;18.598;2023-12-04T11:28:02;101148.84;;;0.97;78.45
57048;BME280;42934;54.294;18.598;2023-12-04T11:30:32;101146.25;;;0.97;78.00
57048;BME280;42934;54.294;18.598;2023-12-04T11:33:04;101145.53;;;1.04;78.02
57048;BME280;42934;54.294;18.598;2023-12-04T11:35:34;101146.31;;;0.98;78.53
57048;BME280;42934;54.294;18.598;2023-12-04T11:38:04;101153.25;;;1.02;78.34
57048;BME280;42934;54.294;18.598;2023-12-04T11:40:36;101153.28;;;1.04;77.95
57048;BME280;42934;54.294;18.598;2023-12-04T11:43:20;101151.63;;;1.09;77.98
57048;BME280;42934;54.294;18.598;2023-12-04T11:45:51;101153.38;;;1.10;77.37
57048;BME280;42934;54.294;18.598;2023-12-04T11:48:23;101167.03;;;1.01;77.22
57048;BME280;42934;54.294;18.598;2023-12-04T11:50:55;101154.22;;;1.10;77.04
57048;BME280;42934;54.294;18.598;2023-12-04T11:53:25;101157.81;;;1.19;77.43
57048;BME280;42934;54.294;18.598;2023-12-04T11:55:56;101153.59;;;1.27;76.91
57048;BME280;42934;54.294;18.598;2023-12-04T11:58:26;101154.56;;;1.35;76.92
57048;BME280;42934;54.294;18.598;2023-12-04T12:00:55;101147.72;;;1.40;77.10
57048;BME280;42934;54.294;18.598;2023-12-04T12:03:25;101151.97;;;1.33;76.34
57048;BME280;42934;54.294;18.598;2023-12-04T12:05:54;101153.56;;;1.25;76.23
57048;BME280;42934;54.294;18.598;2023-12-04T12:08:24;101148.59;;;1.39;76.54
57048;BME280;42934;54.294;18.598;2023-12-04T12:10:53;101144.34;;;1.46;76.65
57048;BME280;42934;54.294;18.598;2023-12-04T12:13:25;101139.25;;;1.50;75.98
57048;BME280;42934;54.294;18.598;2023-12-04T12:15:54;101135.00;;;1.57;76.54
57048;BME280;42934;54.294;18.598;2023-12-04T12:18:26;101143.66;;;1.61;75.96
57048;BME280;42934;54.294;18.598;2023-12-04T12:20:56;101140.38;;;1.74;75.77
57048;BME280;42934;54.294;18.598;2023-12-04T12:23:25;101144.66;;;1.72;75.06
57048;BME280;42934;54.294;18.598;2023-12-04T12:25:55;101146.38;;;1.73;75.50
57048;BME280;42934;54.294;18.598;2023-12-04T12:28:26;101145.66;;;1.83;75.29
57048;BME280;42934;54.294;18.598;2023-12-04T12:30:55;101139.66;;;1.86;75.27
57048;BME280;42934;54.294;18.598;2023-12-04T12:33:25;101139.56;;;1.78;74.71
57048;BME280;42934;54.294;18.598;2023-12-04T12:35:54;101141.28;;;1.79;74.83
57048;BME280;42934;54.294;18.598;2023-12-04T12:38:30;101135.94;;;1.62;74.30
57048;BME280;42934;54.294;18.598;2023-12-04T12:41:05;101140.94;;;1.50;75.09
57048;BME280;42934;54.294;18.598;2023-12-04T12:43:36;101134.00;;;1.44;74.74
57048;BME280;42934;54.294;18.598;2023-12-04T12:46:06;101135.78;;;1.51;75.74
57048;BME280;42934;54.294;18.598;2023-12-04T12:48:35;101132.28;;;1.46;75.13
57048;BME280;42934;54.294;18.598;2023-12-04T12:51:05;101128.91;;;1.52;75.03
57048;BME280;42934;54.294;18.598;2023-12-04T12:53:35;101129.53;;;1.34;74.24
57048;BME280;42934;54.294;18.598;2023-12-04T12:56:04;101125.19;;;1.30;75.18
57048;BME280;42934;54.294;18.598;2023-12-04T12:58:34;101124.13;;;1.17;74.74
57048;BME280;42934;54.294;18.598;2023-12-04T13:01:05;101127.53;;;1.13;75.62